Time;durP1;ratioP1;P1;durP2;ratioP2;P2;SDS_P1;SDS_P2;PMS_P1;PMS_P2;Temp;Humidity;BMP_temperature;BMP_pressure;BME280_temperature;BME280_humidity;BME280_pressure;Samples;Min_cycle;Max_cycle;Signal;HPM_P1;HPM_P2
2023/10/04 00:00:19;;;;;;;8.40;5.20;;;;;;;16.15;81.58;100251.03;109230;276;38682;-73
2023/10/04 00:03:21;;;;;;;10.90;5.90;;;;;;;16.13;81.81;100268.95;108994;276;38498;-72
2023/10/04 00:05:57;;;;;;;9.00;6.10;;;;;;;16.14;82.02;100268.33;109263;276;38658;-72
2023/10/04 00:08:34;;;;;;;9.60;5.60;;;;;;;16.14;82.01;100264.45;109264;276;38167;-72
2023/10/04 00:12:00;;;;;;;8.30;5.90;;;;;;;16.15;82.20;100258.61;108557;276;898292;-72
2023/10/04 00:14:36;;;;;;;8.40;5.20;;;;;;;16.12;82.31;100248.41;109275;276;40087;-73
2023/10/04 00:17:14;;;;;;;9.40;5.50;;;;;;;16.10;82.51;100252.23;109265;276;38594;-73
2023/10/04 00:19:55;;;;;;;8.30;5.40;;;;;;;16.10;82.61;100257.53;109441;276;39871;-73
2023/10/04 00:22:29;;;;;;;8.60;5.80;;;;;;;16.09;82.87;100257.58;109277;276;39039;-73
2023/10/04 00:25:08;;;;;;;9.40;5.80;;;;;;;16.07;82.91;100249.23;109041;276;39942;-73
2023/10/04 00:27:43;;;;;;;11.20;5.30;;;;;;;16.06;82.99;100231.56;109234;276;38484;-73
2023/10/04 00:30:20;;;;;;;8.00;5.60;;;;;;;16.05;83.15;100237.96;109202;276;38266;-73
2023/10/04 00:32:56;;;;;;;7.60;5.40;;;;;;;16.03;83.19;100252.88;109120;276;38308;-71
2023/10/04 00:35:32;;;;;;;8.50;5.60;;;;;;;16.01;83.41;100259.32;109138;276;39217;-72
2023/10/04 00:38:06;;;;;;;8.00;5.00;;;;;;;15.98;83.73;100264.73;108933;276;39851;-71
2023/10/04 00:40:43;;;;;;;7.40;5.10;;;;;;;15.96;83.93;100274.73;109167;276;38239;-72
2023/10/04 00:43:19;;;;;;;8.60;5.10;;;;;;;15.96;84.16;100277.40;109135;276;38748;-72
2023/10/04 00:45:58;;;;;;;6.70;4.10;;;;;;;15.97;84.56;100284.34;109113;276;38292;-72
2023/10/04 00:48:36;;;;;;;7.00;4.20;;;;;;;15.99;84.40;100294.80;109132;276;38287;-72
2023/10/04 00:51:15;;;;;;;7.40;4.20;;;;;;;15.99;84.83;100310.60;109091;276;39414;-72
2023/10/04 00:53:52;;;;;;;7.10;4.50;;;;;;;15.98;84.78;100327.58;109152;276;38280;-72
2023/10/04 00:56:30;;;;;;;6.30;4.00;;;;;;;15.97;85.15;100345.09;109129;276;39720;-72
2023/10/04 00:59:09;;;;;;;6.20;3.70;;;;;;;15.95;85.18;100350.11;109124;276;38233;-72
2023/10/04 01:01:56;;;;;;;5.30;3.30;;;;;;;15.93;85.06;100361.85;109203;276;39407;-72
2023/10/04 01:04:31;;;;;;;4.60;2.90;;;;;;;15.88;84.72;100369.90;109225;276;38159;-72
2023/10/04 01:07:07;;;;;;;4.60;2.70;;;;;;;15.83;84.64;100380.23;109009;276;38297;-72
2023/10/04 01:09:49;;;;;;;5.50;2.70;;;;;;;15.79;85.00;100376.27;108954;276;38307;-72
2023/10/04 01:12:28;;;;;;;5.60;2.50;;;;;;;15.74;84.54;100382.69;109143;276;38702;-72
2023/10/04 01:15:25;;;;;;;4.20;2.40;;;;;;;15.70;84.37;100395.77;108446;276;897486;-72
2023/10/04 01:18:10;;;;;;;3.40;1.70;;;;;;;15.65;84.09;100400.45;109133;276;38156;-72
2023/10/04 01:20:45;;;;;;;4.60;2.50;;;;;;;15.59;83.65;100405.69;108958;276;38168;-74
2023/10/04 01:23:21;;;;;;;4.20;1.80;;;;;;;15.52;83.75;100418.44;109099;276;39553;-72
2023/10/04 01:25:57;;;;;;;2.70;1.70;;;;;;;15.46;83.70;100427.17;109141;276;39316;-72
2023/10/04 01:28:31;;;;;;;4.50;1.80;;;;;;;15.40;83.50;100446.34;109098;276;38446;-72
2023/10/04 01:31:05;;;;;;;2.90;1.60;;;;;;;15.33;83.82;100446.20;109136;276;38981;-72
2023/10/04 01:33:40;;;;;;;2.10;1.30;;;;;;;15.26;83.93;100450.11;109072;276;39245;-72
2023/10/04 01:36:13;;;;;;;3.00;1.80;;;;;;;15.23;83.80;100455.02;109122;276;39319;-72
2023/10/04 01:38:47;;;;;;;2.20;1.40;;;;;;;15.17;83.79;100456.26;108941;276;175205;-72
2023/10/04 01:41:26;;;;;;;3.10;1.60;;;;;;;15.13;83.95;100451.55;109130;276;38298;-72
2023/10/04 01:44:02;;;;;;;2.20;1.40;;;;;;;15.07;83.96;100444.66;109165;276;38189;-72
2023/10/04 01:46:37;;;;;;;2.70;1.70;;;;;;;15.02;83.88;100439.90;109165;276;38421;-72
2023/10/04 01:49:13;;;;;;;2.10;1.00;;;;;;;14.99;84.00;100457.77;109180;276;38619;-72
2023/10/04 01:51:51;;;;;;;3.10;1.10;;;;;;;14.96;83.77;100477.44;109223;276;39593;-72
2023/10/04 01:54:26;;;;;;;1.80;1.20;;;;;;;14.91;83.71;100481.55;109283;276;39702;-72
2023/10/04 01:57:05;;;;;;;1.70;1.10;;;;;;;14.88;83.72;100483.64;109290;276;39625;-72
2023/10/04 01:59:40;;;;;;;2.30;0.90;;;;;;;14.85;83.39;100497.70;109246;276;38490;-72
2023/10/04 02:02:18;;;;;;;2.10;1.10;;;;;;;14.80;83.24;100515.70;109281;276;38968;-72
2023/10/04 02:04:55;;;;;;;2.40;0.80;;;;;;;14.81;83.68;100526.75;109195;276;39502;-72
2023/10/04 02:07:30;;;;;;;2.50;1.20;;;;;;;14.78;83.59;100537.09;109288;272;38212;-72
2023/10/04 02:10:11;;;;;;;3.00;1.20;;;;;;;14.73;83.72;100538.55;109256;276;39152;-72
2023/10/04 02:12:50;;;;;;;2.80;1.20;;;;;;;14.68;83.88;100532.84;108920;276;38197;-74
2023/10/04 02:15:27;;;;;;;5.20;1.50;;;;;;;14.64;83.96;100540.60;109139;276;189176;-72
2023/10/04 02:18:01;;;;;;;2.70;1.20;;;;;;;14.60;84.38;100550.30;108972;276;38211;-73
2023/10/04 02:20:36;;;;;;;2.70;1.10;;;;;;;14.58;84.17;100555.86;109268;276;38296;-73
2023/10/04 02:23:11;;;;;;;2.30;1.00;;;;;;;14.54;84.09;100561.70;109268;276;39335;-71
2023/10/04 02:25:46;;;;;;;2.20;0.90;;;;;;;14.47;83.84;100566.77;109284;276;39641;-72
2023/10/04 02:28:26;;;;;;;1.80;0.90;;;;;;;14.39;83.73;100575.38;109291;276;38148;-72
2023/10/04 02:31:02;;;;;;;2.30;0.90;;;;;;;14.32;83.65;100580.64;109261;276;38131;-73
2023/10/04 02:33:38;;;;;;;3.00;1.10;;;;;;;14.26;83.66;100588.86;109244;276;38286;-73
2023/10/04 02:36:17;;;;;;;2.90;1.10;;;;;;;14.20;83.90;100592.67;109270;276;39663;-72
2023/10/04 02:38:51;;;;;;;1.00;0.90;;;;;;;14.14;83.91;100603.65;109021;276;38375;-71
2023/10/04 02:41:28;;;;;;;3.50;0.90;;;;;;;14.10;84.20;100607.39;109270;276;40107;-72
2023/10/04 02:44:07;;;;;;;1.50;1.00;;;;;;;14.08;84.47;100608.67;109210;268;38231;-74
2023/10/04 02:46:44;;;;;;;2.10;1.10;;;;;;;14.07;84.65;100613.83;109225;276;39452;-72
2023/10/04 02:49:20;;;;;;;3.10;1.30;;;;;;;14.06;84.83;100616.33;108964;276;38791;-72
2023/10/04 02:51:57;;;;;;;2.60;1.10;;;;;;;14.03;84.76;100622.25;109276;276;38170;-72
2023/10/04 02:54:31;;;;;;;2.30;0.90;;;;;;;14.04;85.05;100629.40;109196;276;38247;-72
2023/10/04 02:57:08;;;;;;;4.20;1.20;;;;;;;14.06;85.29;100632.33;108678;276;723733;-72
2023/10/04 02:59:46;;;;;;;3.80;1.00;;;;;;;14.02;85.05;100640.05;109208;276;38582;-72
2023/10/04 03:02:23;;;;;;;2.60;1.10;;;;;;;13.99;85.12;100640.17;109230;276;38441;-72
2023/10/04 03:04:57;;;;;;;2.20;1.00;;;;;;;13.92;84.66;100639.28;109199;276;38761;-72
2023/10/04 03:07:34;;;;;;;2.10;1.10;;;;;;;13.86;84.70;100644.81;109296;276;39250;-72
2023/10/04 03:10:11;;;;;;;3.10;0.90;;;;;;;13.83;84.75;100652.01;109318;276;40110;-73
2023/10/04 03:12:45;;;;;;;4.10;0.90;;;;;;;13.77;84.69;100656.66;109311;276;39319;-71
2023/10/04 03:15:23;;;;;;;2.00;0.90;;;;;;;13.71;84.84;100660.77;109262;276;38347;-71
2023/10/04 03:17:59;;;;;;;3.20;1.10;;;;;;;13.64;84.95;100664.26;109245;276;38243;-72
2023/10/04 03:20:35;;;;;;;3.50;1.50;;;;;;;13.60;85.11;100662.35;109302;276;38632;-72
2023/10/04 03:23:11;;;;;;;4.80;1.10;;;;;;;13.54;85.00;100668.39;109198;276;38195;-72
2023/10/04 03:25:47;;;;;;;3.30;0.90;;;;;;;13.50;85.19;100676.83;109216;276;39349;-72
2023/10/04 03:28:26;;;;;;;3.70;1.20;;;;;;;13.45;85.44;100681.05;109199;276;39625;-72
2023/10/04 03:31:04;;;;;;;2.40;1.10;;;;;;;13.40;85.45;100680.42;109238;276;38378;-72
2023/10/04 03:33:39;;;;;;;2.40;1.10;;;;;;;13.36;85.47;100680.77;109189;276;38459;-73
2023/10/04 03:36:15;;;;;;;3.40;1.30;;;;;;;13.36;85.78;100689.04;109214;276;38603;-72
2023/10/04 03:38:50;;;;;;;4.00;1.30;;;;;;;13.34;85.76;100690.49;109196;276;39708;-73
2023/10/04 03:41:24;;;;;;;2.40;1.30;;;;;;;13.30;85.65;100698.04;109231;276;38170;-73
2023/10/04 03:44:03;;;;;;;4.20;1.10;;;;;;;13.27;85.82;100699.39;109215;276;38281;-74
2023/10/04 03:46:39;;;;;;;3.60;1.30;;;;;;;13.27;86.09;100702.20;109128;276;175337;-72
2023/10/04 03:49:19;;;;;;;2.80;1.00;;;;;;;13.29;86.00;100716.14;109255;276;39051;-72
2023/10/04 03:51:53;;;;;;;2.80;1.20;;;;;;;13.28;86.00;100723.70;109245;276;39426;-72
2023/10/04 03:54:30;;;;;;;3.40;1.70;;;;;;;13.30;86.31;100727.85;109297;276;38287;-72
2023/10/04 03:57:06;;;;;;;4.80;1.20;;;;;;;13.31;86.42;100733.20;109047;276;38337;-71
2023/10/04 03:59:44;;;;;;;1.90;1.30;;;;;;;13.36;86.49;100737.42;109112;268;175181;-71
2023/10/04 04:02:19;;;;;;;2.20;1.10;;;;;;;13.36;86.30;100737.73;109264;276;38319;-71
2023/10/04 04:04:54;;;;;;;3.30;1.10;;;;;;;13.39;86.22;100740.75;109253;276;38745;-71
2023/10/04 04:07:28;;;;;;;3.90;1.20;;;;;;;13.39;85.90;100742.70;109238;276;38236;-72
2023/10/04 04:10:03;;;;;;;5.20;1.80;;;;;;;13.37;85.91;100747.13;109241;276;38763;-73
2023/10/04 04:12:40;;;;;;;3.40;1.40;;;;;;;13.35;85.66;100747.92;109273;276;38958;-72
2023/10/04 04:15:24;;;;;;;5.00;1.30;;;;;;;13.35;85.82;100752.15;109284;276;38845;-72
2023/10/04 04:18:02;;;;;;;4.70;1.30;;;;;;;13.33;85.60;100760.10;109244;276;39046;-71
2023/10/04 04:20:37;;;;;;;5.30;1.50;;;;;;;13.29;85.51;100767.11;109197;276;38187;-71
2023/10/04 04:23:16;;;;;;;4.60;1.40;;;;;;;13.25;85.59;100768.34;109241;276;38753;-72
2023/10/04 04:25:51;;;;;;;2.90;1.50;;;;;;;13.23;85.74;100771.74;109295;276;38290;-71
2023/10/04 04:28:27;;;;;;;4.30;1.50;;;;;;;13.24;85.85;100774.52;109255;276;38221;-71
2023/10/04 04:31:14;;;;;;;4.10;1.50;;;;;;;13.27;85.88;100776.16;109229;276;39354;-71
2023/10/04 04:33:51;;;;;;;4.60;1.50;;;;;;;13.25;85.68;100776.23;109174;276;38460;-71
2023/10/04 04:36:32;;;;;;;2.80;1.10;;;;;;;13.24;85.80;100784.49;109168;276;38151;-71
2023/10/04 04:39:09;;;;;;;4.10;1.40;;;;;;;13.25;85.62;100786.41;109096;276;40255;-71
2023/10/04 04:41:49;;;;;;;5.10;1.60;;;;;;;13.28;85.83;100786.80;109151;276;38793;-74
2023/10/04 04:44:38;;;;;;;4.90;1.80;;;;;;;13.31;85.86;100783.32;108965;276;38647;-72
2023/10/04 04:47:12;;;;;;;4.50;1.80;;;;;;;13.35;85.97;100788.77;109165;276;38187;-74
2023/10/04 04:49:48;;;;;;;5.40;1.50;;;;;;;13.36;85.72;100785.38;109144;276;38722;-73
2023/10/04 04:52:24;;;;;;;4.50;1.60;;;;;;;13.38;85.67;100788.83;109157;276;39555;-71
2023/10/04 04:55:03;;;;;;;4.00;1.40;;;;;;;13.37;85.72;100798.84;109087;276;39544;-74
2023/10/04 04:57:38;;;;;;;6.20;1.90;;;;;;;13.39;85.56;100802.80;108914;276;39291;-73
2023/10/04 05:00:33;;;;;;;4.30;1.80;;;;;;;13.39;85.38;100808.21;109067;276;38462;-71
2023/10/04 05:03:09;;;;;;;6.50;1.60;;;;;;;13.39;85.47;100812.77;109078;276;38163;-72
2023/10/04 05:05:49;;;;;;;4.70;1.50;;;;;;;13.38;85.19;100816.51;109085;276;38394;-73
2023/10/04 05:08:25;;;;;;;5.60;1.80;;;;;;;13.39;85.38;100810.14;109106;276;38021;-72
2023/10/04 05:11:03;;;;;;;5.00;1.60;;;;;;;13.40;85.12;100818.16;109127;276;39625;-72
2023/10/04 05:13:39;;;;;;;4.00;1.90;;;;;;;13.42;85.16;100821.42;109138;276;39557;-74
2023/10/04 05:16:17;;;;;;;5.50;1.30;;;;;;;13.43;85.11;100823.62;109025;276;175190;-74
2023/10/04 05:18:54;;;;;;;6.80;1.80;;;;;;;13.46;85.04;100831.27;109177;276;39300;-74
2023/10/04 05:21:28;;;;;;;4.00;2.00;;;;;;;13.48;84.79;100824.84;108428;276;897725;-72
2023/10/04 05:24:05;;;;;;;4.90;1.70;;;;;;;13.48;84.56;100824.81;109120;276;38222;-72
2023/10/04 05:26:39;;;;;;;4.60;1.50;;;;;;;13.51;84.49;100829.10;109102;276;39486;-72
2023/10/04 05:29:13;;;;;;;5.00;1.70;;;;;;;13.55;84.33;100833.31;109280;276;38211;-72
2023/10/04 05:31:50;;;;;;;6.10;1.60;;;;;;;13.56;84.33;100838.15;109214;276;38397;-71
2023/10/04 05:34:24;;;;;;;7.10;1.70;;;;;;;13.57;84.31;100835.85;109124;276;175052;-71
2023/10/04 05:36:58;;;;;;;4.70;1.50;;;;;;;13.57;84.00;100840.59;109273;276;38057;-72
2023/10/04 05:39:35;;;;;;;8.00;2.20;;;;;;;13.59;84.19;100846.27;109232;276;38760;-72
2023/10/04 05:42:09;;;;;;;4.90;1.70;;;;;;;13.63;84.00;100852.40;109263;276;38620;-72
2023/10/04 05:44:52;;;;;;;5.30;2.00;;;;;;;13.66;83.67;100860.54;109276;276;38455;-73
2023/10/04 05:47:26;;;;;;;5.00;1.50;;;;;;;13.64;83.54;100872.69;109262;276;38222;-72
2023/10/04 05:50:01;;;;;;;4.60;1.30;;;;;;;13.64;83.55;100873.08;109282;276;39370;-72
2023/10/04 05:52:35;;;;;;;5.50;1.60;;;;;;;13.66;83.55;100883.49;109314;276;38298;-71
2023/10/04 05:55:16;;;;;;;4.30;1.40;;;;;;;13.68;83.33;100891.98;109300;276;38475;-72
2023/10/04 05:57:53;;;;;;;4.30;1.80;;;;;;;13.70;83.31;100895.41;109306;276;38493;-71
2023/10/04 06:00:28;;;;;;;5.90;1.80;;;;;;;13.69;83.13;100900.20;109360;276;38274;-72
2023/10/04 06:03:04;;;;;;;2.90;1.30;;;;;;;13.69;82.98;100897.95;109294;276;38235;-72
2023/10/04 06:05:43;;;;;;;7.00;1.80;;;;;;;13.71;83.00;100898.02;109303;276;38277;-72
2023/10/04 06:08:19;;;;;;;5.80;1.50;;;;;;;13.77;83.05;100894.60;109000;276;39465;-72
2023/10/04 06:10:59;;;;;;;4.90;1.80;;;;;;;13.83;83.21;100900.12;108961;276;38574;-72
2023/10/04 06:13:47;;;;;;;7.40;2.00;;;;;;;13.86;83.10;100906.66;109292;276;38954;-71
2023/10/04 06:16:26;;;;;;;8.20;2.10;;;;;;;13.90;82.92;100909.98;109222;276;39315;-72
2023/10/04 06:19:01;;;;;;;4.20;1.40;;;;;;;13.94;82.90;100917.54;109277;276;38181;-72
2023/10/04 06:21:39;;;;;;;6.80;1.80;;;;;;;13.98;82.80;100922.99;109261;276;40352;-74
2023/10/04 06:24:15;;;;;;;4.90;1.60;;;;;;;14.05;82.86;100925.49;108980;276;39325;-73
2023/10/04 06:26:54;;;;;;;5.40;1.90;;;;;;;14.10;82.41;100926.30;109288;276;39261;-73
2023/10/04 06:29:33;;;;;;;5.10;2.10;;;;;;;14.14;82.41;100931.41;108864;276;175186;-73
2023/10/04 06:32:09;;;;;;;;;;;;;;;14.16;82.09;100931.16;109287;276;38156;-72
2023/10/04 06:34:47;;;;;;;6.50;1.60;;;;;;;14.13;82.10;100935.48;109237;276;38183;-71
2023/10/04 06:37:26;;;;;;;5.90;1.70;;;;;;;14.14;81.83;100940.35;109024;276;38208;-71
2023/10/04 06:40:03;;;;;;;8.10;2.70;;;;;;;14.15;81.65;100939.77;109279;276;38222;-71
2023/10/04 06:42:41;;;;;;;3.70;1.70;;;;;;;14.17;81.45;100950.92;109351;276;38496;-72
2023/10/04 06:45:18;;;;;;;5.40;1.50;;;;;;;14.18;81.34;100954.57;109276;276;39434;-73
2023/10/04 06:48:04;;;;;;;5.70;1.90;;;;;;;14.20;81.28;100949.91;109349;276;38129;-71
2023/10/04 06:50:49;;;;;;;7.40;1.80;;;;;;;14.22;80.88;100957.20;109282;276;38299;-70
2023/10/04 06:53:29;;;;;;;5.10;1.80;;;;;;;14.24;80.73;100954.30;109258;276;38547;-71
2023/10/04 06:56:12;;;;;;;5.20;1.80;;;;;;;14.26;80.70;100963.54;104634;269;3013692;-72
2023/10/04 06:58:48;;;;;;;4.60;1.80;;;;;;;14.27;80.65;100966.29;109248;276;38321;-74
2023/10/04 07:01:24;;;;;;;3.90;1.80;;;;;;;14.30;80.42;100966.48;109235;276;38289;-73
2023/10/04 07:03:58;;;;;;;4.80;1.70;;;;;;;14.37;80.74;100964.47;109212;276;38162;-72
2023/10/04 07:06:38;;;;;;;4.90;1.60;;;;;;;14.44;80.32;100964.48;108984;276;39312;-71
2023/10/04 07:09:15;;;;;;;6.10;1.90;;;;;;;14.51;79.84;100966.86;109229;276;40110;-71
2023/10/04 07:11:53;;;;;;;7.70;2.00;;;;;;;14.55;79.36;100969.66;108957;276;38230;-74
2023/10/04 07:14:29;;;;;;;5.80;1.60;;;;;;;14.57;79.48;100973.92;109176;276;38461;-72
2023/10/04 07:17:09;;;;;;;5.70;1.80;;;;;;;14.59;78.82;100980.35;109218;276;39391;-72
2023/10/04 07:19:45;;;;;;;4.50;1.60;;;;;;;14.67;78.95;100983.66;108996;276;38178;-71
2023/10/04 07:22:29;;;;;;;4.40;1.70;;;;;;;14.73;78.58;100988.17;109180;276;38736;-72
2023/10/04 07:25:08;;;;;;;6.50;2.60;;;;;;;14.77;78.30;100991.45;109199;276;38954;-72
2023/10/04 07:27:42;;;;;;;;;;;;;;;14.81;77.90;100995.34;109216;276;39494;-71
2023/10/04 07:30:26;;;;;;;5.10;1.80;;;;;;;14.77;77.44;100995.33;109200;276;38788;-73
2023/10/04 07:33:03;;;;;;;7.40;1.80;;;;;;;14.88;77.91;100996.25;109194;276;39753;-71
2023/10/04 07:35:46;;;;;;;6.80;2.80;;;;;;;15.02;77.76;101001.89;109220;276;38175;-72
2023/10/04 07:38:20;;;;;;;5.30;1.60;;;;;;;15.18;77.75;101000.11;109225;276;38245;-72
2023/10/04 07:40:56;;;;;;;5.90;1.80;;;;;;;15.32;77.53;100994.33;109250;276;39340;-73
2023/10/04 07:43:31;;;;;;;6.20;1.80;;;;;;;15.47;77.73;100993.45;109160;276;38800;-73
2023/10/04 07:46:07;;;;;;;4.90;2.30;;;;;;;15.70;78.06;100997.12;109179;276;39574;-71
2023/10/04 07:48:43;;;;;;;4.00;1.50;;;;;;;15.99;76.98;100992.13;108899;276;39416;-72
2023/10/04 07:51:20;;;;;;;6.40;2.00;;;;;;;16.48;77.49;100994.17;109067;276;172291;-71
2023/10/04 07:53:55;;;;;;;6.20;2.00;;;;;;;17.01;75.55;100986.42;109177;276;38755;-72
2023/10/04 07:56:34;;;;;;;6.50;2.20;;;;;;;17.68;74.57;100988.98;109256;276;38138;-73
2023/10/04 07:59:08;;;;;;;4.20;1.50;;;;;;;18.66;73.73;100991.30;109220;276;38247;-72
2023/10/04 08:01:45;;;;;;;4.40;1.70;;;;;;;19.60;70.50;100983.17;109219;276;38813;-75
2023/10/04 08:04:20;;;;;;;4.60;2.00;;;;;;;20.15;67.17;100988.88;109000;276;37998;-73
2023/10/04 08:06:58;;;;;;;5.70;2.20;;;;;;;20.12;63.46;100991.77;109278;276;39484;-72
2023/10/04 08:09:35;;;;;;;4.80;1.70;;;;;;;19.83;61.97;100999.02;109258;276;38806;-74
2023/10/04 08:12:11;;;;;;;4.40;1.90;;;;;;;19.43;61.03;101001.60;109261;276;38613;-73
2023/10/04 08:14:47;;;;;;;4.30;1.80;;;;;;;19.00;60.25;101009.33;109225;276;38556;-74
2023/10/04 08:17:23;;;;;;;6.50;2.40;;;;;;;18.60;60.50;101016.95;108995;277;38297;-73
2023/10/04 08:20:00;;;;;;;5.60;2.80;;;;;;;18.23;61.28;101019.50;108942;277;38277;-73
2023/10/04 08:22:35;;;;;;;5.40;2.20;;;;;;;17.89;61.66;101024.70;108920;277;38145;-71
2023/10/04 08:25:12;;;;;;;6.20;2.10;;;;;;;17.65;62.58;101026.05;108959;277;38161;-72
2023/10/04 08:27:49;;;;;;;5.90;2.50;;;;;;;17.44;63.05;101030.23;108915;277;38484;-71
2023/10/04 08:30:25;;;;;;;8.10;2.10;;;;;;;17.22;63.34;101030.08;108294;277;891936;-72
2023/10/04 08:33:01;;;;;;;4.40;2.10;;;;;;;16.99;63.81;101036.05;108964;277;39453;-73
2023/10/04 08:35:42;;;;;;;5.20;2.00;;;;;;;16.83;64.64;101047.86;108942;277;39483;-72
2023/10/04 08:38:20;;;;;;;6.20;1.70;;;;;;;16.68;65.25;101050.95;108878;277;175037;-73
2023/10/04 08:40:56;;;;;;;3.40;1.90;;;;;;;16.49;65.53;101052.94;108980;277;38286;-72
2023/10/04 08:43:30;;;;;;;5.70;2.30;;;;;;;16.33;66.03;101056.77;108895;277;38236;-73
2023/10/04 08:46:07;;;;;;;6.30;2.50;;;;;;;16.19;66.68;101062.23;108939;277;38209;-72
2023/10/04 08:48:41;;;;;;;8.40;2.00;;;;;;;16.09;67.28;101068.91;108653;277;172355;-72
2023/10/04 08:51:28;;;;;;;6.00;1.80;;;;;;;16.01;67.57;101070.55;108920;277;38908;-73
2023/10/04 08:54:12;;;;;;;6.00;2.00;;;;;;;15.89;67.88;101069.15;108948;277;38833;-73
2023/10/04 08:56:56;;;;;;;5.70;2.00;;;;;;;15.78;67.74;101069.70;108897;277;38272;-73
2023/10/04 08:59:31;;;;;;;4.80;1.90;;;;;;;15.69;67.84;101075.61;108928;277;38342;-72
2023/10/04 09:02:11;;;;;;;5.60;2.20;;;;;;;15.60;68.13;101083.23;109005;277;38141;-71
2023/10/04 09:04:48;;;;;;;9.80;2.00;;;;;;;15.49;68.47;101085.48;108990;277;39657;-71
2023/10/04 09:07:27;;;;;;;6.00;2.20;;;;;;;15.42;68.70;101090.92;108950;277;38559;-71
2023/10/04 09:09:59;;;;;;;;;;;;;;;15.35;68.89;101090.73;108982;277;38373;-71
2023/10/04 09:12:38;;;;;;;5.40;1.90;;;;;;;15.26;69.12;101091.85;108958;277;39446;-71
2023/10/04 09:15:17;;;;;;;8.20;2.80;;;;;;;15.20;69.66;101092.99;108952;276;38267;-71
2023/10/04 09:17:57;;;;;;;7.60;2.30;;;;;;;15.19;70.22;101096.17;109216;276;39612;-72
2023/10/04 09:20:32;;;;;;;7.50;2.20;;;;;;;15.23;70.35;101094.42;109015;276;41520;-71
2023/10/04 09:23:22;;;;;;;5.30;2.30;;;;;;;15.28;70.25;101094.91;109263;276;38410;-72
2023/10/04 09:25:58;;;;;;;8.80;2.50;;;;;;;15.38;70.71;101101.46;109267;276;38942;-72
2023/10/04 09:28:44;;;;;;;4.90;2.00;;;;;;;15.49;70.63;101100.09;109288;276;38217;-71
2023/10/04 09:31:19;;;;;;;7.20;2.20;;;;;;;15.55;70.47;101103.48;109304;276;38250;-72
2023/10/04 09:33:54;;;;;;;6.30;2.40;;;;;;;15.60;70.26;101106.08;109263;276;38175;-71
2023/10/04 09:36:37;;;;;;;6.20;2.30;;;;;;;15.65;70.51;101105.52;109269;276;38207;-71
2023/10/04 09:39:23;;;;;;;7.30;2.70;;;;;;;15.64;70.05;101102.73;109313;276;39467;-70
2023/10/04 09:42:03;;;;;;;5.60;2.50;;;;;;;15.61;69.89;101103.77;109293;276;39026;-72
2023/10/04 09:44:42;;;;;;;7.20;2.60;;;;;;;15.55;69.78;101105.79;109266;276;38225;-72
2023/10/04 09:47:24;;;;;;;6.20;2.60;;;;;;;15.50;69.76;101109.90;109252;276;39611;-71
2023/10/04 09:50:00;;;;;;;5.70;2.30;;;;;;;15.48;69.92;101111.58;109280;276;38182;-71
2023/10/04 09:52:37;;;;;;;9.00;2.20;;;;;;;15.44;69.49;101115.96;109241;276;38360;-71
2023/10/04 09:55:13;;;;;;;7.60;2.70;;;;;;;15.41;69.70;101116.45;109212;276;38512;-71
2023/10/04 09:57:53;;;;;;;11.30;3.30;;;;;;;15.40;69.90;101119.65;109281;276;38736;-72
2023/10/04 10:00:30;;;;;;;5.30;2.40;;;;;;;15.38;69.67;101123.79;109247;276;38756;-72
2023/10/04 10:03:08;;;;;;;5.20;2.30;;;;;;;15.33;69.51;101118.21;109005;276;38310;-72
2023/10/04 10:05:47;;;;;;;6.40;2.30;;;;;;;15.27;69.20;101125.91;109334;276;39573;-72
2023/10/04 10:08:21;;;;;;;3.90;1.90;;;;;;;15.21;69.38;101124.05;109293;276;38479;-72
2023/10/04 10:10:59;;;;;;;7.40;3.40;;;;;;;15.18;69.69;101125.57;109185;276;172345;-72
2023/10/04 10:13:36;;;;;;;4.60;2.10;;;;;;;15.15;69.52;101119.92;109263;276;39477;-73
2023/10/04 10:16:11;;;;;;;6.10;2.50;;;;;;;15.14;69.53;101120.17;109268;276;38270;-73
2023/10/04 10:18:46;;;;;;;5.10;2.10;;;;;;;15.14;69.39;101120.17;109241;276;38293;-72
2023/10/04 10:21:21;;;;;;;6.70;2.40;;;;;;;15.14;69.80;101117.71;109294;276;38753;-72
2023/10/04 10:24:03;;;;;;;6.40;2.80;;;;;;;15.16;69.69;101117.75;109281;276;39316;-72
2023/10/04 10:26:38;;;;;;;6.80;2.40;;;;;;;15.19;69.80;101115.34;109288;276;38308;-72
2023/10/04 10:29:23;;;;;;;6.50;2.10;;;;;;;15.24;69.79;101109.85;109114;276;172362;-72
2023/10/04 10:32:09;;;;;;;5.90;2.40;;;;;;;15.32;69.85;101111.59;109228;276;38453;-72
2023/10/04 10:34:45;;;;;;;5.60;2.00;;;;;;;15.42;69.97;101109.89;109288;276;38162;-72
2023/10/04 10:37:32;;;;;;;5.50;2.20;;;;;;;15.53;69.52;101111.52;108935;276;38192;-71
2023/10/04 10:40:13;;;;;;;3.60;2.00;;;;;;;15.60;69.43;101110.14;109062;276;38272;-71
2023/10/04 10:43:15;;;;;;;7.70;2.30;;;;;;;15.65;69.24;101109.23;109198;276;39944;-73
2023/10/04 10:45:52;;;;;;;7.80;2.10;;;;;;;15.69;69.65;101108.66;108654;276;895516;-72
2023/10/04 10:48:36;;;;;;;5.60;2.30;;;;;;;15.72;69.40;101103.45;108909;276;38582;-72
2023/10/04 10:51:11;;;;;;;7.10;2.40;;;;;;;15.72;68.97;101103.05;109213;276;38154;-73
2023/10/04 10:53:46;;;;;;;6.50;2.50;;;;;;;15.70;68.83;101109.86;109131;276;175069;-73
2023/10/04 10:56:20;;;;;;;7.90;2.70;;;;;;;15.67;68.41;101112.80;108601;276;861518;-74
2023/10/04 10:58:55;;;;;;;8.90;2.60;;;;;;;15.64;68.21;101110.85;108838;276;175091;-72
2023/10/04 11:01:30;;;;;;;4.20;2.00;;;;;;;15.61;68.47;101114.48;109262;276;38460;-71
2023/10/04 11:04:16;;;;;;;6.30;2.10;;;;;;;15.56;68.48;101115.58;109259;276;38234;-72
2023/10/04 11:06:56;;;;;;;4.20;2.00;;;;;;;15.49;68.55;101115.55;109048;276;38151;-72
2023/10/04 11:09:37;;;;;;;5.10;2.30;;;;;;;15.42;68.39;101114.48;109181;276;175092;-71
2023/10/04 11:12:12;;;;;;;4.20;2.10;;;;;;;15.34;68.46;101120.46;109254;276;38976;-71
2023/10/04 11:14:49;;;;;;;4.80;2.10;;;;;;;15.29;68.54;101116.14;109192;276;38225;-72
2023/10/04 11:17:24;;;;;;;6.60;2.30;;;;;;;15.27;68.64;101116.56;108937;277;38885;-72
2023/10/04 11:20:02;;;;;;;5.40;2.10;;;;;;;15.28;68.85;101110.41;108910;277;38762;-73
2023/10/04 11:22:38;;;;;;;5.50;2.20;;;;;;;15.27;68.86;101113.44;108974;277;38223;-72
2023/10/04 11:25:14;;;;;;;5.20;1.90;;;;;;;15.27;68.84;101105.68;108921;277;38227;-73
2023/10/04 11:27:56;;;;;;;5.40;1.90;;;;;;;15.29;68.90;101107.90;109001;277;38157;-71
2023/10/04 11:30:33;;;;;;;4.60;1.60;;;;;;;15.31;68.80;101102.35;108992;277;38147;-74
2023/10/04 11:33:10;;;;;;;4.80;1.90;;;;;;;15.31;68.28;101097.39;108982;277;39533;-73
2023/10/04 11:35:47;;;;;;;5.20;1.70;;;;;;;15.33;68.15;101096.08;108980;277;38293;-71
2023/10/04 11:38:27;;;;;;;4.30;1.70;;;;;;;15.38;68.05;101095.88;108933;277;38409;-72
2023/10/04 11:41:02;;;;;;;4.00;1.80;;;;;;;15.41;67.71;101091.84;108935;277;38179;-71
2023/10/04 11:43:38;;;;;;;4.60;1.70;;;;;;;15.44;67.88;101097.49;108905;277;38239;-71
2023/10/04 11:46:12;;;;;;;8.00;2.10;;;;;;;15.47;67.88;101099.45;108911;277;38169;-75
2023/10/04 11:48:47;;;;;;;4.50;2.20;;;;;;;15.51;67.91;101095.96;108887;277;38412;-73
2023/10/04 11:51:35;;;;;;;5.20;2.10;;;;;;;15.55;68.36;101097.69;108936;277;38412;-72
2023/10/04 11:54:11;;;;;;;6.20;2.20;;;;;;;15.59;67.70;101099.61;108887;277;38279;-71
2023/10/04 11:56:47;;;;;;;4.40;1.60;;;;;;;15.60;67.35;101099.77;108972;277;38415;-71
2023/10/04 11:59:33;;;;;;;5.20;2.70;;;;;;;15.58;67.11;101103.36;108963;277;38183;-71
2023/10/04 12:02:07;;;;;;;4.70;1.80;;;;;;;15.58;67.23;101106.36;109016;277;38347;-71
2023/10/04 12:04:41;;;;;;;6.10;2.00;;;;;;;15.58;67.55;101109.86;108960;277;38225;-71
2023/10/04 12:07:18;;;;;;;5.50;2.50;;;;;;;15.61;67.44;101108.32;108935;277;38252;-73
2023/10/04 12:09:55;;;;;;;4.70;2.00;;;;;;;15.61;67.52;101112.92;108982;277;39974;-72
2023/10/04 12:12:34;;;;;;;4.90;2.20;;;;;;;15.59;67.26;101111.58;108938;277;38287;-71